Time;durP1;ratioP1;P1;durP2;ratioP2;P2;SDS_P1;SDS_P2;PMS_P1;PMS_P2;Temp;Humidity;BMP_temperature;BMP_pressure;BME280_temperature;BME280_humidity;BME280_pressure;Samples;Min_cycle;Max_cycle;Signal;HPM_P1;HPM_P2
2022/05/17 00:02:16;;;;;;;1.48;1.38;;;;;;;17.56;40.12;98095.06;5012550;28;20037;-68
2022/05/17 00:04:42;;;;;;;1.77;1.15;;;;;;;17.62;40.32;98091.41;5029251;28;20088;-69
2022/05/17 00:07:07;;;;;;;2.35;1.10;;;;;;;17.52;40.53;98085.06;5029142;28;20520;-69
2022/05/17 00:09:33;;;;;;;1.15;1.05;;;;;;;17.63;40.42;98086.88;5029311;28;20046;-69
2022/05/17 00:11:59;;;;;;;1.60;1.00;;;;;;;17.62;40.29;98086.06;5012578;28;20064;-69
2022/05/17 00:14:26;;;;;;;1.00;1.00;;;;;;;17.68;40.43;98082.41;5028821;28;20046;-69
2022/05/17 00:16:51;;;;;;;2.15;1.00;;;;;;;17.30;40.82;98074.13;5028956;28;20106;-68
2022/05/17 00:19:19;;;;;;;1.20;1.00;;;;;;;17.59;40.83;98073.09;5028553;28;20053;-68
2022/05/17 00:21:45;;;;;;;1.58;0.98;;;;;;;17.45;41.18;98081.72;5028914;28;20053;-68
2022/05/17 00:24:12;;;;;;;1.08;1.00;;;;;;;17.46;41.09;98051.94;5012747;28;20041;-68
2022/05/17 00:26:37;;;;;;;4.28;1.10;;;;;;;17.35;41.49;98070.72;5028925;28;20049;-68
2022/05/17 00:29:04;;;;;;;1.73;0.90;;;;;;;17.53;41.43;98071.38;5012204;28;20053;-69
2022/05/17 00:31:30;;;;;;;1.60;1.00;;;;;;;17.48;41.48;98062.44;5012227;28;20140;-69
2022/05/17 00:33:56;;;;;;;2.63;1.00;;;;;;;17.22;41.98;98061.09;5045386;28;20052;-69
2022/05/17 00:36:22;;;;;;;1.73;1.00;;;;;;;17.39;41.84;98069.22;5014147;28;20033;-69
2022/05/17 00:38:48;;;;;;;1.30;1.10;;;;;;;17.39;41.85;98063.84;5015679;28;20062;-68
2022/05/17 00:41:14;;;;;;;1.00;1.00;;;;;;;17.51;41.56;98053.91;5033724;28;20057;-69
2022/05/17 00:46:59;;;;;;;4.32;1.00;;;;;;;17.64;41.48;98053.59;5018318;28;20044;-69
2022/05/17 00:49:34;;;;;;;3.28;1.30;;;;;;;17.63;41.67;98041.22;5008086;28;20053;-68
2022/05/17 00:52:04;;;;;;;1.00;1.00;;;;;;;17.61;42.00;98040.66;5015604;28;20045;-69
2022/05/17 00:54:30;;;;;;;2.10;1.00;;;;;;;17.37;42.46;98039.09;5015836;28;20044;-68
2022/05/17 00:57:20;;;;;;;2.15;1.10;;;;;;;17.67;42.24;98039.69;5032025;28;20041;-69
2022/05/17 00:59:47;;;;;;;1.30;1.20;;;;;;;17.58;42.15;98031.22;5031726;28;20111;-70
2022/05/17 01:02:13;;;;;;;1.38;1.25;;;;;;;17.35;42.46;98028.63;5015461;28;20136;-70
2022/05/17 01:04:39;;;;;;;1.10;1.00;;;;;;;17.55;42.57;98030.88;5032003;28;20477;-68
2022/05/17 01:07:08;;;;;;;5.10;1.30;;;;;;;17.44;42.79;98031.75;4999034;28;20103;-68
2022/05/17 01:09:34;;;;;;;1.23;1.10;;;;;;;17.20;43.07;98030.19;5015582;28;20053;-67
2022/05/17 01:12:00;;;;;;;5.38;1.35;;;;;;;17.24;42.92;98028.66;4999277;28;20100;-68
2022/05/17 01:17:10;;;;;;;1.35;1.25;;;;;;;16.97;43.19;97990.84;5032257;28;20044;-69
2022/05/17 01:19:39;;;;;;;1.17;0.90;;;;;;;17.39;43.08;98015.53;5031885;28;20053;-68
2022/05/17 01:22:05;;;;;;;4.05;1.10;;;;;;;17.22;43.26;98026.19;5032063;28;20140;-68
2022/05/17 01:24:31;;;;;;;1.20;1.10;;;;;;;17.02;43.42;98023.13;5015241;28;20039;-69
2022/05/17 01:27:28;;;;;;;5.13;1.10;;;;;;;17.49;42.89;98026.47;5015160;28;20045;-68
2022/05/17 01:29:55;;;;;;;1.48;1.20;;;;;;;17.23;43.52;98022.50;5007885;28;20060;-70
2022/05/17 01:32:21;;;;;;;1.27;1.00;;;;;;;17.18;43.62;97994.72;5031434;28;20107;-68
2022/05/17 01:34:47;;;;;;;1.83;1.30;;;;;;;17.09;43.89;98021.13;4998847;28;20045;-67
2022/05/17 01:37:14;;;;;;;2.35;1.30;;;;;;;17.35;43.65;98020.56;5014855;28;20037;-68
2022/05/17 01:39:40;;;;;;;4.32;1.52;;;;;;;17.16;43.45;98018.31;5014397;28;20059;-68
2022/05/17 01:42:06;;;;;;;3.75;1.20;;;;;;;17.01;43.02;97954.44;5014664;28;20451;-68
2022/05/17 01:44:32;;;;;;;3.25;1.40;;;;;;;17.40;43.33;98027.91;5031178;28;20072;-68
2022/05/17 01:46:58;;;;;;;3.42;1.50;;;;;;;17.45;43.03;98022.66;5031953;28;20464;-67
2022/05/17 01:49:24;;;;;;;1.42;1.10;;;;;;;17.57;42.67;98026.09;4998009;28;20112;-67
2022/05/17 01:51:49;;;;;;;1.55;1.13;;;;;;;17.58;42.92;98020.47;5031246;28;20041;-67
2022/05/17 01:54:15;;;;;;;1.13;1.02;;;;;;;17.56;42.95;98024.47;5014445;28;20136;-67
2022/05/17 01:56:41;;;;;;;3.88;1.17;;;;;;;17.60;42.61;98022.94;4998046;28;20076;-68
2022/05/17 01:59:07;;;;;;;2.10;1.30;;;;;;;17.69;42.64;98024.97;5030626;28;20045;-67
2022/05/17 02:01:32;;;;;;;2.47;1.20;;;;;;;17.62;42.88;98024.31;5014565;28;20103;-68
2022/05/17 02:03:58;;;;;;;2.17;1.30;;;;;;;17.62;42.63;98018.13;4998151;28;20037;-68
2022/05/17 02:06:25;;;;;;;2.78;1.38;;;;;;;17.58;42.91;98017.81;5014088;28;20048;-68
2022/05/17 02:08:50;;;;;;;1.35;1.20;;;;;;;17.60;42.70;98007.66;4998255;28;20037;-68
2022/05/17 02:11:16;;;;;;;1.75;1.30;;;;;;;17.72;42.50;98016.44;4997944;28;20048;-68
2022/05/17 02:13:42;;;;;;;1.48;1.13;;;;;;;17.70;42.57;98023.91;5030641;28;20041;-68
2022/05/17 02:16:10;;;;;;;2.70;1.23;;;;;;;17.71;42.86;98016.69;5047202;28;20072;-69
2022/05/17 02:18:36;;;;;;;2.78;1.30;;;;;;;17.59;42.59;98005.19;5014199;28;20067;-68
2022/05/17 02:21:03;;;;;;;4.10;1.13;;;;;;;17.81;42.87;98014.16;5031030;28;20079;-68
2022/05/17 02:23:29;;;;;;;1.48;1.17;;;;;;;17.75;42.39;98020.50;5030495;28;20493;-66
2022/05/17 02:25:55;;;;;;;1.55;1.42;;;;;;;17.74;42.60;98014.34;5030355;28;20071;-67
2022/05/17 02:28:21;;;;;;;2.88;0.90;;;;;;;17.80;42.56;98013.38;4997883;28;20041;-70
2022/05/17 02:30:47;;;;;;;1.35;1.08;;;;;;;17.61;42.92;98009.25;5030107;28;20409;-67
2022/05/17 02:33:13;;;;;;;1.55;1.10;;;;;;;17.66;42.65;97993.25;5013876;28;20571;-68
2022/05/17 02:35:41;;;;;;;3.05;1.20;;;;;;;17.99;42.58;98012.03;5030273;28;20049;-68
2022/05/17 02:38:07;;;;;;;2.95;1.20;;;;;;;17.94;42.09;98011.16;5013115;28;20394;-68
2022/05/17 02:40:33;;;;;;;1.80;1.00;;;;;;;17.90;42.11;98004.63;5031305;28;20076;-68
2022/05/17 02:43:00;;;;;;;4.03;1.17;;;;;;;17.90;42.33;98010.00;5031310;28;20041;-69
2022/05/17 02:45:26;;;;;;;1.27;1.17;;;;;;;17.94;42.31;98011.16;5013405;28;20052;-68
2022/05/17 02:47:52;;;;;;;1.45;1.25;;;;;;;17.63;42.61;97983.00;5012936;28;20061;-69
2022/05/17 02:50:19;;;;;;;1.98;1.17;;;;;;;17.98;42.27;98001.53;5027927;28;20044;-70
2022/05/17 02:52:45;;;;;;;2.10;1.15;;;;;;;17.89;42.54;98003.84;5011327;28;20524;-69
2022/05/17 02:55:11;;;;;;;3.83;1.20;;;;;;;17.80;42.56;97999.13;5044726;28;20045;-67
2022/05/17 02:57:37;;;;;;;1.15;1.05;;;;;;;17.79;42.61;97982.19;5011636;28;20517;-70
2022/05/17 03:00:07;;;;;;;1.33;1.20;;;;;;;17.94;42.70;97998.53;4994753;28;20052;-68
2022/05/17 03:02:33;;;;;;;2.50;1.20;;;;;;;17.73;42.79;97993.88;5013159;28;20053;-69
2022/05/17 03:04:59;;;;;;;1.27;1.17;;;;;;;17.96;42.35;97993.72;5013116;28;20051;-68
2022/05/17 03:07:24;;;;;;;2.42;1.15;;;;;;;17.92;42.74;97989.91;5013374;28;20482;-69
2022/05/17 03:09:50;;;;;;;2.58;1.20;;;;;;;17.95;42.36;97992.13;5013298;28;20490;-69
2022/05/17 03:12:16;;;;;;;1.60;1.08;;;;;;;18.13;42.22;97993.72;5012901;28;20095;-69
2022/05/17 03:14:41;;;;;;;3.45;1.30;;;;;;;18.16;42.04;97969.88;5029540;28;20591;-69
2022/05/17 03:17:14;;;;;;;1.63;1.10;;;;;;;18.31;42.08;97996.97;5030585;28;20377;-69
2022/05/17 03:19:41;;;;;;;3.08;1.20;;;;;;;18.19;42.19;97998.09;5028982;28;20065;-69
2022/05/17 03:22:07;;;;;;;1.85;1.20;;;;;;;18.06;42.28;97972.41;5012797;28;20046;-68
2022/05/17 03:24:33;;;;;;;1.90;1.25;;;;;;;18.22;41.83;97981.53;5012793;28;20044;-68
2022/05/17 03:27:00;;;;;;;1.92;1.30;;;;;;;18.55;41.49;97994.91;5030377;28;20041;-68
2022/05/17 03:29:26;;;;;;;4.05;1.20;;;;;;;18.59;41.42;97996.03;5029750;28;20049;-67
2022/05/17 03:31:52;;;;;;;1.20;1.10;;;;;;;18.51;41.34;97974.97;5030545;28;20049;-68
2022/05/17 03:34:18;;;;;;;2.08;1.05;;;;;;;18.86;40.84;98002.31;5028803;28;20063;-68
2022/05/17 03:36:44;;;;;;;1.63;0.90;;;;;;;18.70;40.60;97975.50;5028982;28;20047;-68
2022/05/17 03:39:10;;;;;;;1.00;0.90;;;;;;;18.94;40.26;98003.75;5028879;28;20045;-68
2022/05/17 03:41:35;;;;;;;1.48;1.15;;;;;;;18.92;40.45;97995.94;5012214;28;20054;-68
2022/05/17 03:44:02;;;;;;;1.02;0.93;;;;;;;19.05;40.21;98000.13;4996328;28;20041;-67
2022/05/17 03:46:28;;;;;;;1.42;1.00;;;;;;;18.79;40.37;98001.69;5029071;28;20456;-68
2022/05/17 03:48:54;;;;;;;1.52;1.05;;;;;;;18.76;40.41;98004.06;5030339;28;20045;-68
2022/05/17 03:51:20;;;;;;;1.70;0.95;;;;;;;18.87;40.59;98013.88;5028728;28;20057;-68
2022/05/17 03:53:47;;;;;;;3.83;1.23;;;;;;;18.76;40.71;98007.56;5028420;28;20647;-68
2022/05/17 03:56:13;;;;;;;1.60;1.02;;;;;;;18.64;40.87;97992.59;5029039;28;20046;-67
2022/05/17 03:58:41;;;;;;;1.80;1.20;;;;;;;18.56;40.92;98001.13;5028735;28;20045;-68
2022/05/17 04:01:07;;;;;;;1.10;1.00;;;;;;;18.45;41.18;97992.09;5012398;28;20057;-68
2022/05/17 04:03:33;;;;;;;3.03;1.20;;;;;;;18.67;40.90;98003.66;5045307;28;20053;-68
2022/05/17 04:06:00;;;;;;;1.65;1.40;;;;;;;18.53;40.87;97969.34;5029004;28;20061;-68
2022/05/17 04:08:26;;;;;;;2.40;1.45;;;;;;;18.68;40.97;98002.63;5012649;28;20405;-69
2022/05/17 04:10:52;;;;;;;10.63;6.63;;;;;;;18.75;40.58;97999.75;5029787;28;20184;-68
2022/05/17 04:13:18;;;;;;;4.32;2.42;;;;;;;18.65;40.39;97970.03;5016006;28;20566;-68
2022/05/17 04:15:43;;;;;;;5.05;1.52;;;;;;;18.79;40.33;98001.69;5032427;28;20050;-67
2022/05/17 04:18:09;;;;;;;2.80;1.52;;;;;;;18.74;40.24;97996.25;5032573;28;20540;-67
2022/05/17 04:20:35;;;;;;;2.75;1.40;;;;;;;18.76;40.80;97985.25;5048799;28;20072;-69
2022/05/17 04:23:01;;;;;;;2.20;1.65;;;;;;;18.57;40.57;97979.34;5015995;28;20132;-68
2022/05/17 04:25:28;;;;;;;7.43;2.63;;;;;;;18.75;40.52;97984.41;5013916;28;20041;-72
2022/05/17 04:27:54;;;;;;;3.35;2.38;;;;;;;18.85;40.40;97989.91;5001845;28;20044;-69
2022/05/17 04:30:21;;;;;;;2.63;2.40;;;;;;;19.10;40.07;97986.72;5034123;28;20087;-68
2022/05/17 04:32:47;;;;;;;3.45;2.70;;;;;;;18.96;40.16;97988.97;5034807;28;20049;-66
2022/05/17 04:35:14;;;;;;;3.55;2.78;;;;;;;19.08;39.82;97995.03;5001354;28;20070;-67
2022/05/17 04:37:40;;;;;;;4.00;3.10;;;;;;;18.96;40.43;97988.19;5001140;28;20187;-67
2022/05/17 04:40:09;;;;;;;5.82;2.78;;;;;;;19.12;40.06;97976.50;5017385;28;20128;-67
2022/05/17 04:42:39;;;;;;;4.80;3.08;;;;;;;19.23;39.75;97995.22;5034323;28;20041;-67
2022/05/17 04:45:07;;;;;;;2.47;2.05;;;;;;;19.30;39.75;98001.25;5017720;28;20420;-69
2022/05/17 04:47:33;;;;;;;3.63;2.08;;;;;;;19.08;39.65;97996.94;5034041;28;20044;-69
2022/05/17 04:52:50;;;;;;;3.13;2.15;;;;;;;19.06;39.93;97985.59;5019789;28;20393;-70
2022/05/17 04:55:18;;;;;;;3.10;2.00;;;;;;;19.14;39.92;97998.63;5017534;28;20037;-69
2022/05/17 04:57:44;;;;;;;2.22;1.90;;;;;;;18.99;39.79;97993.06;5001185;28;20423;-68
2022/05/17 05:00:18;;;;;;;3.78;2.00;;;;;;;19.17;40.07;97992.72;5017453;28;20048;-68
2022/05/17 05:02:43;;;;;;;2.08;1.80;;;;;;;19.06;39.86;97994.50;5033252;28;20049;-67
2022/05/17 05:05:09;;;;;;;3.50;2.45;;;;;;;19.00;39.76;97978.53;5001210;28;20037;-67
2022/05/17 05:07:35;;;;;;;2.63;2.22;;;;;;;18.95;40.08;97991.91;5033476;28;20044;-67
2022/05/17 05:10:01;;;;;;;4.30;2.40;;;;;;;19.16;39.77;97994.59;5033378;28;20041;-68
2022/05/17 05:12:30;;;;;;;2.90;2.53;;;;;;;19.18;39.60;97994.34;4995668;28;20037;-68
2022/05/17 05:14:57;;;;;;;5.88;2.78;;;;;;;19.32;39.94;97992.91;5011489;28;20042;-68
2022/05/17 05:17:23;;;;;;;3.00;2.70;;;;;;;19.13;40.21;98005.03;5016314;28;20041;-67
2022/05/17 05:19:49;;;;;;;4.70;3.30;;;;;;;19.03;39.83;97970.78;5015647;28;20640;-68
2022/05/17 05:22:14;;;;;;;5.88;4.40;;;;;;;19.21;39.74;98000.03;5047509;28;20079;-68
2022/05/17 05:24:40;;;;;;;5.32;4.28;;;;;;;19.21;39.60;98000.03;4982435;28;20041;-68
2022/05/17 05:27:06;;;;;;;9.38;7.43;;;;;;;18.95;39.63;97959.63;5023532;28;20516;-68
2022/05/17 05:29:33;;;;;;;14.45;8.88;;;;;;;19.36;39.72;97994.03;5016760;28;20036;-68
2022/05/17 05:31:59;;;;;;;10.48;6.40;;;;;;;19.20;39.86;98002.97;5049990;28;20056;-68
2022/05/17 05:34:27;;;;;;;10.52;6.20;;;;;;;19.31;39.39;98004.75;5033469;28;20041;-67
2022/05/17 05:36:54;;;;;;;10.20;6.72;;;;;;;19.27;39.89;98001.75;5032800;28;20037;-67
2022/05/17 05:39:21;;;;;;;9.48;6.60;;;;;;;19.32;39.89;98012.59;5032619;28;20132;-68
2022/05/17 05:41:49;;;;;;;11.10;6.57;;;;;;;19.51;39.79;98011.16;5013282;28;20460;-67
2022/05/17 05:44:16;;;;;;;8.52;5.82;;;;;;;19.52;39.20;98006.59;5013045;28;20452;-69
2022/05/17 05:46:42;;;;;;;9.63;6.18;;;;;;;19.63;39.31;98022.59;5030230;28;20045;-67
2022/05/17 05:49:08;;;;;;;7.90;5.75;;;;;;;19.61;38.95;98016.66;5032312;28;20140;-67
2022/05/17 05:51:33;;;;;;;8.25;5.20;;;;;;;19.74;38.98;98010.84;5015921;28;20048;-67
2022/05/17 05:53:59;;;;;;;7.05;4.97;;;;;;;19.89;38.89;98019.06;5015829;28;20065;-70
2022/05/17 05:56:25;;;;;;;12.43;6.07;;;;;;;20.03;38.33;98020.25;5011616;28;20083;-68
2022/05/17 05:58:51;;;;;;;9.85;5.07;;;;;;;19.94;38.80;98029.06;4995435;28;20087;-68
2022/05/17 06:01:17;;;;;;;7.68;5.32;;;;;;;19.96;38.96;98018.84;4980022;28;20041;-68
2022/05/17 06:03:43;;;;;;;9.60;4.90;;;;;;;20.27;38.22;98025.31;5002316;28;20068;-68
2022/05/17 06:06:09;;;;;;;6.00;4.25;;;;;;;20.10;38.03;98034.34;5030450;28;20044;-69
2022/05/17 06:08:35;;;;;;;5.75;3.85;;;;;;;20.20;38.17;98008.56;5046596;28;20044;-69
2022/05/17 06:11:04;;;;;;;5.53;4.22;;;;;;;20.38;38.18;98021.63;5039217;28;20061;-67
2022/05/17 06:13:29;;;;;;;7.65;3.90;;;;;;;20.38;38.16;98033.22;5045734;28;20045;-67
2022/05/17 06:15:55;;;;;;;6.13;3.95;;;;;;;20.33;38.30;98029.69;5015434;28;20044;-69
2022/05/17 06:18:21;;;;;;;4.07;3.30;;;;;;;20.25;37.89;98000.50;5000077;28;20417;-68
2022/05/17 06:21:01;;;;;;;6.57;3.30;;;;;;;20.59;38.14;98018.78;4973776;28;20057;-68
2022/05/17 06:23:26;;;;;;;5.35;3.13;;;;;;;20.41;38.10;98021.91;5031555;28;20049;-68
2022/05/17 06:25:52;;;;;;;17.30;9.98;;;;;;;20.29;38.11;98002.44;5016219;28;20052;-68
2022/05/17 06:28:21;;;;;;;6.28;4.05;;;;;;;20.61;37.69;98029.31;5032704;28;20043;-67
2022/05/17 06:30:47;;;;;;;3.53;2.42;;;;;;;20.53;37.98;98022.53;5015717;28;20067;-69
2022/05/17 06:33:15;;;;;;;3.15;2.50;;;;;;;20.49;38.05;98007.13;4999620;28;20033;-70
2022/05/17 06:35:45;;;;;;;2.60;2.30;;;;;;;20.54;38.07;98026.88;5032366;28;20048;-69
2022/05/17 06:38:11;;;;;;;;;;;;;;;20.87;37.76;98021.09;4999789;28;20425;-70
2022/05/17 06:40:38;;;;;;;2.50;2.10;;;;;;;20.34;38.15;97990.84;4982332;28;19927;-70
2022/05/17 06:43:05;;;;;;;3.00;2.03;;;;;;;20.35;38.40;98025.66;5016342;28;20037;-69
2022/05/17 06:45:31;;;;;;;4.15;1.67;;;;;;;20.52;38.07;98029.00;4982929;28;20135;-70
2022/05/17 06:47:58;;;;;;;2.40;1.45;;;;;;;20.34;37.71;98025.91;5016006;28;20040;-69
2022/05/17 06:50:24;;;;;;;1.83;1.70;;;;;;;20.52;38.03;98020.91;5031991;28;20040;-69
2022/05/17 06:52:52;;;;;;;3.40;1.42;;;;;;;20.60;37.74;98003.41;4998763;28;20041;-69
2022/05/17 06:55:18;;;;;;;4.25;1.60;;;;;;;20.55;38.14;98027.66;5049836;28;20131;-69
2022/05/17 06:57:44;;;;;;;2.92;1.45;;;;;;;20.55;37.60;98016.88;5013518;28;20041;-69
2022/05/17 07:00:12;;;;;;;3.22;1.88;;;;;;;20.88;37.57;98032.72;5028561;28;20501;-69
2022/05/17 07:02:39;;;;;;;2.65;1.40;;;;;;;20.70;37.97;98025.88;5029398;28;20052;-69
2022/05/17 07:05:05;;;;;;;2.63;2.03;;;;;;;20.71;37.84;98034.78;5030262;28;20111;-69
2022/05/17 07:07:31;;;;;;;4.70;1.85;;;;;;;20.63;38.02;98040.66;5013669;28;20083;-69
2022/05/17 07:15:26;;;;;;;3.78;1.60;;;;;;;19.93;38.02;97960.06;5017857;28;20803;-69
2022/05/17 07:17:51;;;;;;;3.03;1.83;;;;;;;20.39;37.74;98045.63;4998659;28;20069;-69
2022/05/17 07:20:17;;;;;;;3.10;2.10;;;;;;;20.47;38.04;98047.84;4998698;28;20048;-68
2022/05/17 07:22:43;;;;;;;2.60;2.17;;;;;;;20.45;38.20;98059.97;5015275;28;20535;-69
2022/05/17 07:25:10;;;;;;;2.10;1.60;;;;;;;20.65;37.60;98049.31;5031711;28;20619;-69
2022/05/17 07:27:37;;;;;;;5.18;2.50;;;;;;;20.56;37.77;98058.97;5031302;28;20102;-68
2022/05/17 07:30:04;;;;;;;2.67;2.40;;;;;;;20.62;37.65;98055.22;4998705;28;20037;-69
2022/05/17 07:32:30;;;;;;;2.92;2.28;;;;;;;20.64;38.08;98055.78;5031446;28;20524;-69
2022/05/17 07:34:56;;;;;;;2.00;1.80;;;;;;;20.65;38.07;98057.41;5031692;28;20045;-68
2022/05/17 07:37:22;;;;;;;2.50;2.05;;;;;;;20.74;37.15;98053.94;4998634;28;20396;-68
2022/05/17 07:39:48;;;;;;;2.80;2.38;;;;;;;20.72;37.47;98058.81;4982347;28;20049;-68
2022/05/17 07:42:14;;;;;;;2.78;2.33;;;;;;;20.83;37.65;98060.50;4998042;28;20060;-70
2022/05/17 07:44:40;;;;;;;3.15;2.20;;;;;;;20.64;37.63;98059.28;4998523;28;20045;-71
2022/05/17 07:47:07;;;;;;;4.50;2.75;;;;;;;20.76;37.60;98068.00;5036837;28;20048;-71
2022/05/17 07:49:37;;;;;;;2.60;2.40;;;;;;;20.70;37.89;98068.22;5035833;28;20048;-71
2022/05/17 07:52:05;;;;;;;4.07;2.25;;;;;;;20.76;37.69;98070.69;5019224;28;20072;-70
2022/05/17 07:54:31;;;;;;;2.85;2.55;;;;;;;20.63;38.28;98073.03;5024032;28;20127;-71
2022/05/17 07:56:57;;;;;;;4.38;2.60;;;;;;;20.69;37.95;98069.28;5039447;28;20127;-71
2022/05/17 07:59:23;;;;;;;4.22;2.70;;;;;;;20.64;37.84;98070.06;5022704;28;20041;-70
2022/05/17 08:01:48;;;;;;;4.15;2.67;;;;;;;20.66;38.09;98073.34;5039049;28;20047;-71
2022/05/17 08:04:14;;;;;;;7.20;2.95;;;;;;;20.71;37.94;98064.47;5041140;28;20041;-70
2022/05/17 08:06:41;;;;;;;5.40;2.90;;;;;;;20.77;37.56;98071.50;5058735;28;20178;-70
2022/05/17 08:09:07;;;;;;;3.78;2.58;;;;;;;20.81;37.57;98069.91;5041642;28;20127;-70
2022/05/17 08:11:33;;;;;;;3.22;2.42;;;;;;;20.75;37.70;98070.94;5040765;28;20052;-70
2022/05/17 08:13:59;;;;;;;4.60;2.75;;;;;;;20.81;37.53;98075.31;5024598;28;20044;-71
2022/05/17 08:16:25;;;;;;;8.02;3.35;;;;;;;20.77;37.61;98072.31;5058218;28;20555;-70
2022/05/17 08:18:53;;;;;;;3.42;2.50;;;;;;;20.82;37.42;98071.53;5009080;28;20143;-70
2022/05/17 08:21:19;;;;;;;4.65;2.72;;;;;;;20.97;37.03;98069.75;5008565;28;20511;-71
2022/05/17 08:23:44;;;;;;;4.03;3.10;;;;;;;21.18;36.72;98060.69;5041053;28;20044;-70
2022/05/17 08:28:57;;;;;;;6.65;3.47;;;;;;;22.03;35.40;98076.34;5044039;28;20047;-71
2022/05/17 08:31:23;;;;;;;5.85;3.42;;;;;;;22.57;34.72;98076.66;5058384;28;20040;-71
2022/05/17 08:33:50;;;;;;;4.55;3.40;;;;;;;23.05;33.72;98078.69;5041233;28;20151;-70
2022/05/17 08:36:15;;;;;;;5.35;3.60;;;;;;;23.23;33.28;98076.19;5024528;28;20044;-71
2022/05/17 08:38:44;;;;;;;5.38;3.85;;;;;;;23.63;33.01;98082.56;5008235;28;20040;-71
2022/05/17 08:41:10;;;;;;;5.68;3.35;;;;;;;23.48;32.41;98071.81;5057780;28;20135;-71
2022/05/17 08:43:51;;;;;;;4.60;2.90;;;;;;;23.80;32.27;98072.94;5040421;28;20484;-71
2022/05/17 08:46:26;;;;;;;6.13;3.00;;;;;;;23.47;32.46;98079.13;5040603;28;20430;-71
2022/05/17 08:49:12;;;;;;;6.10;3.90;;;;;;;23.12;33.09;98087.34;5024730;28;20085;-71
2022/05/17 08:51:44;;;;;;;5.32;3.90;;;;;;;23.10;33.49;98089.50;5074136;28;20511;-71
2022/05/17 08:54:13;;;;;;;5.35;3.47;;;;;;;22.86;33.42;98064.94;5040796;28;20051;-71
2022/05/17 08:56:45;;;;;;;4.97;4.10;;;;;;;22.87;33.63;98079.28;5057381;28;20040;-70
2022/05/17 08:59:14;;;;;;;5.13;3.92;;;;;;;22.68;33.85;98081.75;5038030;28;20493;-71
2022/05/17 09:02:19;;;;;;;5.72;3.40;;;;;;;22.59;34.09;98094.22;5054450;28;20398;-71
2022/05/17 09:05:19;;;;;;;4.15;3.55;;;;;;;22.45;34.30;98089.63;5018394;28;20071;-72
2022/05/17 09:07:53;;;;;;;3.78;2.97;;;;;;;22.25;34.68;98085.00;5053981;28;20044;-70
2022/05/17 09:10:27;;;;;;;7.95;3.45;;;;;;;22.11;34.82;98088.53;5072318;28;20557;-71
2022/05/17 09:13:00;;;;;;;3.40;3.03;;;;;;;22.13;34.81;98073.63;5037690;28;20048;-71
2022/05/17 09:15:28;;;;;;;8.85;5.70;;;;;;;21.86;34.92;98083.06;5038441;28;20048;-71
2022/05/17 09:17:55;;;;;;;5.65;4.00;;;;;;;21.82;35.34;98071.97;5020877;28;20040;-67
2022/05/17 09:20:26;;;;;;;3.95;2.85;;;;;;;21.77;35.12;98076.56;5053763;28;20056;-66
2022/05/17 09:22:52;;;;;;;4.03;2.58;;;;;;;21.43;35.43;98073.47;5021155;28;20098;-66
2022/05/17 09:25:21;;;;;;;3.53;3.00;;;;;;;21.64;35.74;98075.97;5036919;28;20036;-67
2022/05/17 09:27:52;;;;;;;4.35;3.00;;;;;;;21.81;35.39;98074.94;5037175;28;20044;-68
2022/05/17 09:30:23;;;;;;;;;;;;;;;21.96;35.06;98075.78;5004984;28;20454;-66
2022/05/17 09:33:19;;;;;;;3.72;2.70;;;;;;;21.88;35.29;98084.41;5053775;28;19916;-66
2022/05/17 09:36:00;;;;;;;5.68;3.00;;;;;;;21.83;35.29;98060.09;5053226;28;20510;-68
2022/05/17 09:38:38;;;;;;;3.95;3.13;;;;;;;21.85;34.98;98082.25;5053876;28;20047;-68
2022/05/17 09:41:11;;;;;;;7.18;3.17;;;;;;;21.80;35.68;98078.72;5034016;28;20175;-67
2022/05/17 09:43:37;;;;;;;5.45;2.80;;;;;;;21.52;35.53;98082.69;5029897;28;20040;-70
2022/05/17 09:46:17;;;;;;;4.07;3.05;;;;;;;21.77;35.76;98084.69;5032162;28;20102;-67
2022/05/17 09:54:46;;;;;;;4.53;3.20;;;;;;;21.33;36.28;98082.34;4996958;28;20107;-66
2022/05/17 09:57:13;;;;;;;4.35;3.50;;;;;;;21.11;36.76;98083.59;5011294;28;20056;-70
2022/05/17 09:59:38;;;;;;;5.22;3.60;;;;;;;21.08;36.68;98084.13;5015687;28;20055;-67
2022/05/17 10:02:05;;;;;;;5.18;3.65;;;;;;;21.18;36.33;98087.69;4997362;28;20050;-66
2022/05/17 10:04:30;;;;;;;3.83;3.28;;;;;;;21.22;36.45;98093.34;5032103;28;20051;-67
2022/05/17 10:06:56;;;;;;;6.78;4.20;;;;;;;21.11;36.52;98099.81;5032734;28;20037;-66
2022/05/17 10:09:33;;;;;;;4.63;3.95;;;;;;;21.32;36.03;98096.94;5031769;28;20156;-68
2022/05/17 10:12:16;;;;;;;5.25;4.35;;;;;;;21.25;36.40;98093.66;5030891;28;20045;-77
2022/05/17 10:14:52;;;;;;;5.18;4.00;;;;;;;21.12;36.22;98077.13;5014965;28;20420;-67
2022/05/17 10:17:26;;;;;;;5.13;4.35;;;;;;;21.16;36.84;98094.41;5032113;28;20132;-69
2022/05/17 10:20:07;;;;;;;8.20;4.45;;;;;;;21.20;36.96;98092.81;5031514;28;20082;-69
2022/05/17 10:22:44;;;;;;;7.00;5.35;;;;;;;21.09;37.24;98091.97;5030727;28;20504;-68
2022/05/17 10:25:23;;;;;;;9.93;5.07;;;;;;;21.11;37.39;98097.09;5026653;28;20064;-68
2022/05/17 10:27:54;;;;;;;7.35;5.18;;;;;;;21.10;37.74;98103.56;5018909;28;20051;-68
2022/05/17 10:30:59;;;;;;;5.90;4.85;;;;;;;21.16;37.22;98111.44;5051592;28;20075;-66
2022/05/17 10:33:59;;;;;;;9.00;5.32;;;;;;;21.00;37.28;98107.00;5069100;28;20508;-67
2022/05/17 10:36:43;;;;;;;5.53;4.60;;;;;;;20.97;37.25;98112.16;5050783;28;20186;-67
2022/05/17 10:39:38;;;;;;;6.97;4.25;;;;;;;20.97;37.20;98101.34;5051571;28;20135;-68
2022/05/17 10:42:05;;;;;;;7.38;4.88;;;;;;;20.86;37.45;98105.84;5051528;28;20044;-67
2022/05/17 10:44:41;;;;;;;5.05;4.32;;;;;;;21.02;37.04;98117.56;5034228;28;20091;-67
2022/05/17 10:47:47;;;;;;;5.07;4.25;;;;;;;21.14;37.17;98112.78;5034346;28;20124;-67
2022/05/17 10:50:21;;;;;;;5.65;4.78;;;;;;;21.14;36.71;98110.88;4988993;28;20544;-67
2022/05/17 10:53:06;;;;;;;6.78;4.40;;;;;;;21.17;36.92;98114.94;5012071;28;20046;-67
2022/05/17 10:55:47;;;;;;;8.30;5.20;;;;;;;21.17;36.91;98113.03;5010563;28;20096;-67
2022/05/17 10:58:49;;;;;;;10.25;5.00;;;;;;;21.07;37.28;98125.69;4978955;28;20056;-69
2022/05/17 11:01:22;;;;;;;8.55;5.60;;;;;;;21.09;36.96;98120.84;5012079;28;20136;-67
2022/05/17 11:04:34;;;;;;;6.85;5.10;;;;;;;21.18;36.52;98119.28;5011930;28;20115;-67
2022/05/17 11:07:09;;;;;;;7.55;5.18;;;;;;;20.88;37.09;98108.28;4991453;28;20516;-76
2022/05/17 11:09:37;;;;;;;7.00;4.82;;;;;;;21.07;36.82;98120.28;5011171;28;20501;-68
2022/05/17 11:12:09;;;;;;;12.43;5.20;;;;;;;20.87;37.10;98102.06;5025924;28;20505;-67
2022/05/17 11:14:51;;;;;;;6.70;5.40;;;;;;;21.10;37.06;98127.84;5007064;28;20040;-68
2022/05/17 11:17:55;;;;;;;9.25;5.55;;;;;;;21.14;37.00;98124.38;5047209;28;20068;-65
2022/05/17 11:20:26;;;;;;;8.98;5.55;;;;;;;20.80;37.17;98133.03;5033452;28;20044;-67
2022/05/17 11:23:04;;;;;;;8.63;5.80;;;;;;;20.90;37.18;98131.22;5019981;28;20064;-67
2022/05/17 11:26:07;;;;;;;6.55;5.13;;;;;;;20.78;37.25;98108.19;4991467;28;20259;-71
2022/05/17 11:28:45;;;;;;;7.30;5.80;;;;;;;20.98;37.20;98136.16;4995045;28;20080;-67
2022/05/17 11:31:37;;;;;;;11.13;6.00;;;;;;;20.98;37.33;98135.34;5025124;28;20188;-70
2022/05/17 11:34:21;;;;;;;10.53;5.57;;;;;;;20.92;37.22;98139.88;5025010;28;20088;-68
2022/05/17 11:36:49;;;;;;;6.55;5.55;;;;;;;20.77;37.80;98133.56;5007945;28;20338;-68
2022/05/17 11:39:48;;;;;;;7.00;5.47;;;;;;;21.05;36.92;98130.56;5023677;28;20085;-68
2022/05/17 11:42:20;;;;;;;9.63;5.82;;;;;;;21.07;37.09;98131.91;5016808;28;20049;-68
2022/05/17 11:44:48;;;;;;;8.48;6.20;;;;;;;20.95;37.34;98122.34;5007940;28;20045;-69
2022/05/17 11:47:37;;;;;;;8.48;5.50;;;;;;;21.25;36.76;98136.06;4975530;28;20041;-68
2022/05/17 11:50:29;;;;;;;6.88;5.45;;;;;;;21.17;36.88;98139.25;5027788;28;20045;-69
2022/05/17 11:53:24;;;;;;;7.72;5.63;;;;;;;21.17;36.48;98128.44;4986357;28;20560;-68
2022/05/17 11:56:13;;;;;;;7.15;5.18;;;;;;;21.25;36.75;98136.84;5027594;28;20635;-68
2022/05/17 11:58:43;;;;;;;6.22;5.43;;;;;;;21.01;36.78;98114.06;5010119;28;20051;-69
2022/05/17 12:01:28;;;;;;;6.75;5.38;;;;;;;21.38;36.34;98151.78;5011722;28;20040;-68
2022/05/17 12:04:23;;;;;;;5.90;5.05;;;;;;;21.53;36.13;98151.84;4995759;28;20049;-68
2022/05/17 12:06:49;;;;;;;8.77;5.43;;;;;;;21.13;36.42;98148.94;4995064;28;20045;-67
2022/05/17 12:09:23;;;;;;;6.18;5.45;;;;;;;21.33;36.60;98143.63;4994460;28;20047;-70
2022/05/17 12:12:11;;;;;;;7.55;5.50;;;;;;;21.48;36.32;98158.03;5010892;28;20778;-68